Map

Track Data

SID SEASON NUMBER BASIN SUBBASIN NAME ISO_TIME NATURE LAT LON WMO_WIND WMO_PRES WMO_AGENCY TRACK_TYPE DIST2LAND LANDFALL IFLAG USA_AGENCY USA_ATCF_ID USA_LAT USA_LON USA_RECORD USA_STATUS USA_WIND USA_PRES USA_SSHS USA_R34_NE USA_R34_SE USA_R34_SW USA_R34_NW USA_R50_NE USA_R50_SE USA_R50_SW USA_R50_NW USA_R64_NE USA_R64_SE USA_R64_SW USA_R64_NW USA_POCI USA_ROCI USA_RMW USA_EYE TOKYO_LAT TOKYO_LON TOKYO_GRADE TOKYO_WIND TOKYO_PRES TOKYO_R50_DIR TOKYO_R50_LONG TOKYO_R50_SHORT TOKYO_R30_DIR TOKYO_R30_LONG TOKYO_R30_SHORT TOKYO_LAND CMA_LAT CMA_LON CMA_CAT CMA_WIND CMA_PRES HKO_LAT HKO_LON HKO_CAT HKO_WIND HKO_PRES NEWDELHI_LAT NEWDELHI_LON NEWDELHI_GRADE NEWDELHI_WIND NEWDELHI_PRES NEWDELHI_CI NEWDELHI_DP NEWDELHI_POCI REUNION_LAT REUNION_LON REUNION_TYPE REUNION_WIND REUNION_PRES REUNION_TNUM REUNION_CI REUNION_RMW REUNION_R34_NE REUNION_R34_SE REUNION_R34_SW REUNION_R34_NW REUNION_R50_NE REUNION_R50_SE REUNION_R50_SW REUNION_R50_NW REUNION_R64_NE REUNION_R64_SE REUNION_R64_SW REUNION_R64_NW BOM_LAT BOM_LON BOM_TYPE BOM_WIND BOM_PRES BOM_TNUM BOM_CI BOM_RMW BOM_R34_NE BOM_R34_SE BOM_R34_SW BOM_R34_NW BOM_R50_NE BOM_R50_SE BOM_R50_SW BOM_R50_NW BOM_R64_NE BOM_R64_SE BOM_R64_SW BOM_R64_NW BOM_ROCI BOM_POCI BOM_EYE BOM_POS_METHOD BOM_PRES_METHOD NADI_LAT NADI_LON NADI_CAT NADI_WIND NADI_PRES WELLINGTON_LAT WELLINGTON_LON WELLINGTON_WIND WELLINGTON_PRES DS824_LAT DS824_LON DS824_STAGE DS824_WIND DS824_PRES TD9636_LAT TD9636_LON TD9636_STAGE TD9636_WIND TD9636_PRES TD9635_LAT TD9635_LON TD9635_WIND TD9635_PRES TD9635_ROCI NEUMANN_LAT NEUMANN_LON NEUMANN_CLASS NEUMANN_WIND NEUMANN_PRES MLC_LAT MLC_LON MLC_CLASS MLC_WIND MLC_PRES USA_GUST BOM_GUST BOM_GUST_PER REUNION_GUST REUNION_GUST_PER USA_SEAHGT USA_SEARAD_NE USA_SEARAD_SE USA_SEARAD_SW USA_SEARAD_NW STORM_SPEED STORM_DIR
1960033S16173 1960 7 SP MM NOT_NAMED 1960-02-01 12:00:00 TS -15.9000 172.600 main 514 480 O________OO___ jtwc_sh SH121960 -15.9000 172.600 -1 -15.9000 172.600 TC 35 -15.9000 172.600 2 13 138
1960033S16173 1960 7 SP MM NOT_NAMED 1960-02-01 15:00:00 TS -16.3778 173.046 main 480 411 P________PP___ SH121960 -16.3851 173.032 -1 -16.3851 173.032 TC 35 -16.3633 173.073 2 13 138
1960033S16173 1960 7 SP MM NOT_NAMED 1960-02-01 18:00:00 TS -16.8903 173.519 main 411 345 O________OP___ jtwc_sh SH121960 -16.9000 173.500 -1 -16.9000 173.500 TC 35 -16.8708 173.557 2 15 139
1960033S16173 1960 7 SP MM NOT_NAMED 1960-02-01 21:00:00 TS -17.4776 174.040 main 343 275 P________PP___ SH121960 -17.4824 174.028 -1 -17.4824 174.028 TC 35 -17.4679 174.062 2 17 142
1960033S16173 1960 7 SP MM NOT_NAMED 1960-02-02 00:00:00 TS -18.2000 174.600 main 275 238 O________OO___ jtwc_sh SH121960 -18.2000 174.600 -1 -18.2000 174.600 TC 35 -18.2000 174.600 2 20 146
1960033S16173 1960 7 SP MM NOT_NAMED 1960-02-02 03:00:00 TS -19.1003 175.188 main 244 241 P________PP___ SH121960 -19.1049 175.193 -1 -19.1049 175.193 TC 35 -19.0909 175.177 2 22 149
1960033S16173 1960 7 SP MM NOT_NAMED 1960-02-02 06:00:00 TS -20.0926 175.794 main 273 273 O________OP___ jtwc_sh SH121960 -20.1000 175.800 -1 -20.1000 175.800 TC 35 -20.0777 175.782 2 23 150
1960033S16173 1960 7 SP MM NOT_NAMED 1960-02-02 09:00:00 TS -21.0834 176.404 main 347 347 P________PP___ SH121960 -21.0873 176.408 -1 -21.0873 176.408 TC 35 -21.0755 176.396 2 22 149
1960033S16173 1960 7 SP MM NOT_NAMED 1960-02-02 12:00:00 TS -22.0000 177.000 main 424 424 O________OO___ jtwc_sh SH121960 -22.0000 177.000 -1 -22.0000 177.000 TC 35 -22.0000 177.000 2 20 147
1960033S16173 1960 7 SP MM NOT_NAMED 1960-02-02 15:00:00 TS -22.7587 177.565 main 504 504 P________PP___ SH121960 -22.7522 177.558 -1 -22.7522 177.558 TC 35 -22.7719 177.578 2 18 144
1960033S16173 1960 7 SP MM NOT_NAMED 1960-02-02 18:00:00 TS -23.4188 178.113 main 570 570 O________OP___ jtwc_sh SH121960 -23.4000 178.100 -1 -23.4000 178.100 TC 35 -23.4564 178.139 2 16 142
1960033S16173 1960 7 SP MM NOT_NAMED 1960-02-02 21:00:00 TS -24.0508 178.665 main 650 650 P________PP___ SH121960 -24.0449 178.658 -1 -24.0449 178.658 TC 35 -24.0627 178.681 2 15 140
1960033S16173 1960 7 SP MM NOT_NAMED 1960-02-03 00:00:00 TS -24.6000 179.200 main 711 711 O________OO___ jtwc_sh SH121960 -24.6000 179.200 -1 -24.6000 179.200 TC 35 -24.6000 179.200 2 14 136
1960033S16173 1960 7 SP MM NOT_NAMED 1960-02-03 03:00:00 TS -25.0394 179.731 main 764 764 P________PP___ SH121960 -25.0223 179.716 -1 -25.0223 179.716 TC 35 -25.0736 179.763 2 13 132
1960033S16173 1960 7 SP MM NOT_NAMED 1960-02-03 06:00:00 TS -25.4293 180.231 main 820 820 O________OP___ jtwc_sh SH121960 -25.4000 -179.800 -1 -25.4000 180.200 TC 35 -25.4879 -179.707 2 12 132
1960033S16173 1960 7 SP MM NOT_NAMED 1960-02-03 09:00:00 TS -25.8511 180.714 main 887 887 P________PP___ SH121960 -25.8351 -179.305 -1 -25.8351 -179.305 TC 35 -25.8831 -179.248 2 12 138
1960033S16173 1960 7 SP MM NOT_NAMED 1960-02-03 12:00:00 TS -26.3000 181.100 main 942 942 O________OO___ jtwc_sh SH121960 -26.3000 -178.900 -1 -26.3000 181.100 TC 35 -26.3000 -178.900 2 11 148
1960033S16173 1960 7 SP MM NOT_NAMED 1960-02-03 15:00:00 TS -26.7798 181.353 main 1005 1005 P________PP___ SH121960 -26.7848 -178.625 -1 -26.7848 -178.625 TC 35 -26.7699 -178.691 2 11 162
1960033S16173 1960 7 SP MM NOT_NAMED 1960-02-03 18:00:00 TS -27.2957 181.468 main 1061 1061 O________OP___ jtwc_sh SH121960 -27.3000 -178.500 -1 -27.3000 181.500 TC 35 -27.2870 -178.597 2 11 175
1960033S16173 1960 7 SP MM NOT_NAMED 1960-02-03 21:00:00 TS -27.8403 181.466 main 1078 1019 P________PP___ SH121960 -27.8426 -178.512 -1 -27.8426 -178.512 TC 35 -27.8356 -178.579 2 11 183
1960033S16173 1960 7 SP MM NOT_NAMED 1960-02-04 00:00:00 TS -28.4000 181.400 main 1019 O________OO___ jtwc_sh SH121960 -28.4000 -178.600 -1 -28.4000 181.400 TC 35 -28.4000 -178.600 2 11 185

Digital Typhoon Data and Search

About IBTrACS Database

This database is a web-friendly format of International Best Track Archive for Climate Stewardship (IBTrACS), a global best track data archive curated by NOAA dating back to 1842.

Updated: 2021-10-19